Time;durP1;ratioP1;P1;durP2;ratioP2;P2;SDS_P1;SDS_P2;PMS_P1;PMS_P2;Temp;Humidity;BMP_temperature;BMP_pressure;BME280_temperature;BME280_humidity;BME280_pressure;Samples;Min_cycle;Max_cycle;Signal;HPM_P1;HPM_P2
2023/10/16 00:02:13;;;;;;;1.92;1.33;;;;;;;11.15;60.71;94651.25;5070932;28;20020;-76
2023/10/16 00:04:44;;;;;;;1.70;1.17;;;;;;;11.08;61.28;94664.91;5070832;28;20469;-76
2023/10/16 00:07:15;;;;;;;2.17;1.00;;;;;;;11.17;60.30;94680.53;5053266;28;20086;-76
2023/10/16 00:09:41;;;;;;;1.77;0.90;;;;;;;10.81;60.93;94675.91;5088048;28;20052;-76
2023/10/16 00:12:07;;;;;;;2.15;1.13;;;;;;;10.91;60.87;94674.16;5069637;28;20465;-76
2023/10/16 00:14:35;;;;;;;1.42;0.90;;;;;;;10.74;61.20;94675.59;5080433;28;20036;-76
2023/10/16 00:17:07;;;;;;;1.27;0.85;;;;;;;10.78;60.63;94669.22;5097870;28;20036;-76
2023/10/16 00:19:33;;;;;;;1.40;1.00;;;;;;;10.87;60.30;94681.41;5069454;28;20033;-76
2023/10/16 00:22:01;;;;;;;1.30;0.98;;;;;;;10.92;60.18;94691.38;5077283;28;20506;-76
2023/10/16 00:24:28;;;;;;;1.42;1.00;;;;;;;10.86;60.22;94665.94;5076044;28;20036;-76
2023/10/16 00:26:54;;;;;;;2.28;0.90;;;;;;;10.87;59.93;94668.41;5076125;28;20024;-76
2023/10/16 00:29:19;;;;;;;2.10;0.80;;;;;;;10.88;59.73;94683.03;5067944;28;20050;-76
2023/10/16 00:31:51;;;;;;;1.58;1.10;;;;;;;10.67;59.92;94683.13;5097473;28;20487;-76
2023/10/16 00:34:19;;;;;;;1.30;0.80;;;;;;;10.69;59.81;94691.56;5096621;28;20031;-76
2023/10/16 00:36:46;;;;;;;1.10;0.80;;;;;;;10.60;59.83;94692.38;5079757;28;20035;-76
2023/10/16 00:39:14;;;;;;;1.85;0.95;;;;;;;10.57;60.22;94705.63;5061717;28;20414;-76
2023/10/16 00:41:40;;;;;;;1.20;0.80;;;;;;;10.55;60.62;94707.50;5077208;28;20042;-76
2023/10/16 00:44:06;;;;;;;1.50;0.80;;;;;;;10.50;60.51;94707.91;5080323;28;20120;-76
2023/10/16 00:46:37;;;;;;;1.35;0.90;;;;;;;10.32;60.93;94724.22;5096158;28;20055;-76
2023/10/16 00:49:06;;;;;;;;;;;;;;;10.31;60.63;94731.19;5064688;28;20387;-76
2023/10/16 00:51:40;;;;;;;1.40;0.90;;;;;;;10.37;60.32;94725.47;5096123;28;19916;-76
2023/10/16 00:54:18;;;;;;;5.47;0.90;;;;;;;10.25;60.42;94714.31;5047932;28;20035;-76
2023/10/16 00:56:49;;;;;;;1.45;1.00;;;;;;;10.38;60.33;94716.72;5060135;28;20040;-76
2023/10/16 00:59:18;;;;;;;1.20;0.80;;;;;;;10.44;59.77;94712.78;5076732;28;20063;-76
2023/10/16 01:01:46;;;;;;;1.20;0.80;;;;;;;10.44;59.65;94717.97;5075653;28;20081;-76
2023/10/16 01:04:13;;;;;;;1.10;0.80;;;;;;;10.48;59.77;94724.59;5076873;28;20412;-76
2023/10/16 01:06:41;;;;;;;1.60;0.80;;;;;;;10.54;59.47;94729.25;5075705;28;20078;-76
2023/10/16 01:09:09;;;;;;;1.50;1.00;;;;;;;10.55;59.07;94727.47;5069442;28;20032;-76
2023/10/16 01:11:39;;;;;;;2.50;1.20;;;;;;;10.44;59.18;94717.97;5075767;28;20068;-76
2023/10/16 01:14:05;;;;;;;2.10;1.33;;;;;;;10.46;58.77;94737.69;5075581;28;20039;-75
2023/10/16 01:16:30;;;;;;;1.80;1.30;;;;;;;10.40;58.93;94737.38;5059758;28;20033;-76
2023/10/16 01:19:06;;;;;;;2.25;1.58;;;;;;;10.47;59.16;94749.75;5058965;28;20115;-75
2023/10/16 01:21:32;;;;;;;2.58;1.77;;;;;;;10.36;59.00;94743.75;5075713;28;20051;-75
2023/10/16 01:24:03;;;;;;;2.50;1.88;;;;;;;10.26;59.33;94747.09;5079179;28;20032;-74
2023/10/16 01:26:29;;;;;;;3.00;1.90;;;;;;;10.09;59.68;94729.50;5071298;28;20044;-75
2023/10/16 01:28:55;;;;;;;2.40;1.77;;;;;;;10.01;59.56;94711.97;5055567;28;20033;-75
2023/10/16 01:31:21;;;;;;;2.65;1.90;;;;;;;10.10;59.84;94738.94;5090011;28;20252;-75
2023/10/16 01:33:47;;;;;;;2.72;2.05;;;;;;;10.03;60.25;94743.00;5093725;28;20099;-75
2023/10/16 01:36:13;;;;;;;5.53;3.33;;;;;;;9.90;60.64;94750.94;5094212;28;20144;-76
2023/10/16 01:38:39;;;;;;;6.00;2.20;;;;;;;9.80;61.10;94716.28;5074776;28;20065;-76
2023/10/16 01:41:05;;;;;;;2.72;2.17;;;;;;;9.64;61.10;94734.88;5092638;28;20055;-75
2023/10/16 01:43:35;;;;;;;3.85;2.10;;;;;;;9.80;61.11;94757.81;5090705;28;20422;-74
2023/10/16 01:46:12;;;;;;;4.13;2.58;;;;;;;9.78;61.26;94765.72;5062484;28;20097;-76
2023/10/16 01:48:41;;;;;;;3.38;2.25;;;;;;;9.75;61.23;94771.16;5072066;28;20024;-76
2023/10/16 01:51:09;;;;;;;3.10;2.40;;;;;;;9.73;61.07;94767.88;5072266;28;20036;-75
2023/10/16 01:53:39;;;;;;;3.00;2.20;;;;;;;9.71;61.15;94777.53;5057035;28;20032;-75
2023/10/16 01:56:12;;;;;;;4.28;2.88;;;;;;;9.65;61.49;94796.19;5076109;28;20116;-75
2023/10/16 01:58:44;;;;;;;3.28;2.70;;;;;;;9.62;61.84;94801.63;5076365;28;20028;-75
2023/10/16 02:01:14;;;;;;;3.58;2.85;;;;;;;9.66;61.77;94818.56;5080462;28;20033;-76
2023/10/16 02:03:44;;;;;;;4.03;3.43;;;;;;;9.68;61.89;94802.91;5085043;28;20059;-75
2023/10/16 02:06:11;;;;;;;4.47;3.38;;;;;;;9.70;62.15;94817.41;5075867;28;20040;-75
2023/10/16 02:08:39;;;;;;;4.68;3.90;;;;;;;9.59;62.27;94805.28;5074592;28;20020;-75
2023/10/16 02:11:06;;;;;;;4.57;4.07;;;;;;;9.62;62.26;94810.22;5075087;28;20028;-75
2023/10/16 02:13:35;;;;;;;5.03;3.95;;;;;;;9.60;62.57;94819.06;5073306;28;20111;-76
2023/10/16 02:16:02;;;;;;;4.70;4.20;;;;;;;9.58;62.53;94818.34;5079589;28;20028;-76
2023/10/16 02:18:36;;;;;;;4.75;3.85;;;;;;;9.38;63.09;94812.94;5091533;28;20028;-75
2023/10/16 02:21:01;;;;;;;5.43;4.10;;;;;;;9.44;63.01;94821.19;5076314;28;20039;-74
2023/10/16 02:23:30;;;;;;;4.90;3.90;;;;;;;9.47;62.69;94815.78;5091041;28;20029;-75
2023/10/16 02:25:56;;;;;;;3.70;3.08;;;;;;;9.56;60.91;94828.03;5058907;28;20039;-75
2023/10/16 02:28:22;;;;;;;4.30;3.78;;;;;;;9.46;61.12;94819.31;5092648;28;20063;-75
2023/10/16 02:30:49;;;;;;;7.25;3.80;;;;;;;9.42;60.76;94823.09;5078156;28;20410;-75
2023/10/16 02:35:47;;;;;;;3.55;3.22;;;;;;;9.38;59.23;94815.53;5071156;28;20036;-76
2023/10/16 02:38:13;;;;;;;5.35;3.30;;;;;;;9.42;59.27;94834.31;5070647;28;20032;-75
2023/10/16 02:40:43;;;;;;;4.43;3.80;;;;;;;9.13;59.45;94813.22;5070902;28;20123;-75
2023/10/16 02:43:18;;;;;;;5.60;3.67;;;;;;;9.38;59.26;94838.88;5072422;28;20021;-76
2023/10/16 02:45:47;;;;;;;4.10;3.28;;;;;;;9.34;58.95;94847.84;5072742;28;20166;-75
2023/10/16 02:48:16;;;;;;;4.60;3.80;;;;;;;9.16;59.17;94825.94;5070741;28;20025;-76
2023/10/16 02:50:49;;;;;;;4.15;3.50;;;;;;;9.39;58.91;94848.31;5072235;28;20131;-75
2023/10/16 02:53:24;;;;;;;4.45;3.60;;;;;;;9.29;59.31;94859.53;5070639;28;20040;-75
2023/10/16 02:55:57;;;;;;;4.22;3.38;;;;;;;9.21;59.14;94847.16;5072213;28;20048;-76
2023/10/16 02:58:23;;;;;;;4.13;3.40;;;;;;;9.46;58.85;94850.44;5070680;28;20491;-75
2023/10/16 03:01:06;;;;;;;5.72;4.35;;;;;;;9.22;58.70;94828.06;5071178;28;20044;-75
2023/10/16 03:03:31;;;;;;;6.20;3.85;;;;;;;9.31;58.34;94837.72;5070559;28;20194;-75
2023/10/16 03:05:58;;;;;;;4.18;3.47;;;;;;;9.37;58.39;94841.59;5082647;28;20490;-75
2023/10/16 03:08:29;;;;;;;11.50;8.65;;;;;;;9.45;58.20;94867.78;5090663;28;20051;-75
2023/10/16 03:11:05;;;;;;;5.07;4.57;;;;;;;9.50;57.98;94862.22;5058979;28;20024;-75
2023/10/16 03:13:35;;;;;;;4.78;3.95;;;;;;;9.44;57.89;94867.88;5073560;28;20571;-75
2023/10/16 03:16:05;;;;;;;5.05;4.28;;;;;;;9.45;57.75;94870.38;5089964;28;20062;-75
2023/10/16 03:18:33;;;;;;;4.95;3.65;;;;;;;9.43;57.57;94874.03;5091988;28;20054;-75
2023/10/16 03:23:43;;;;;;;6.40;5.35;;;;;;;9.44;57.21;94891.22;5075398;28;20066;-76
2023/10/16 03:26:22;;;;;;;4.97;4.47;;;;;;;9.39;57.24;94889.00;5090594;28;20461;-75
2023/10/16 03:28:48;;;;;;;6.03;3.88;;;;;;;9.24;57.38;94896.16;5090419;28;20032;-75
2023/10/16 03:31:14;;;;;;;4.97;4.47;;;;;;;9.47;56.86;94906.53;5071727;28;20024;-75
2023/10/16 03:33:39;;;;;;;5.53;3.92;;;;;;;9.38;57.41;94908.06;5091324;28;20036;-75
2023/10/16 03:36:05;;;;;;;4.32;3.50;;;;;;;9.39;56.80;94907.97;5073496;28;20036;-75
2023/10/16 03:38:41;;;;;;;7.00;3.90;;;;;;;9.43;56.54;94923.28;5088181;28;20085;-75
2023/10/16 03:41:31;;;;;;;5.07;3.90;;;;;;;9.17;57.05;94900.19;5070154;28;20060;-75
2023/10/16 03:43:56;;;;;;;4.70;3.80;;;;;;;9.04;57.82;94897.66;5069560;28;20087;-75
2023/10/16 03:46:23;;;;;;;4.28;3.65;;;;;;;9.02;57.77;94914.28;5061792;28;20041;-75
2023/10/16 03:48:49;;;;;;;5.03;3.22;;;;;;;9.08;57.32;94930.19;5070565;28;20384;-75
2023/10/16 03:51:16;;;;;;;4.95;4.10;;;;;;;8.98;57.47;94907.69;5052848;28;20028;-75
2023/10/16 03:53:44;;;;;;;5.13;4.07;;;;;;;8.98;57.88;94933.59;5069542;28;20068;-75
2023/10/16 03:56:10;;;;;;;7.22;4.50;;;;;;;9.11;57.37;94936.91;5072184;28;20464;-75
2023/10/16 03:58:41;;;;;;;5.90;4.10;;;;;;;9.00;57.53;94931.69;5070889;28;20029;-75
2023/10/16 04:01:10;;;;;;;4.43;3.70;;;;;;;9.02;57.58;94927.22;5079067;28;20035;-75
2023/10/16 04:03:47;;;;;;;6.07;4.47;;;;;;;9.05;57.50;94940.78;5073292;28;20044;-75
2023/10/16 04:06:21;;;;;;;7.72;5.03;;;;;;;8.92;57.50;94925.34;5089624;28;20459;-75
2023/10/16 04:08:47;;;;;;;13.15;8.98;;;;;;;9.05;57.25;94924.41;5082084;28;20524;-75
2023/10/16 04:11:16;;;;;;;20.90;14.27;;;;;;;9.08;57.50;94926.75;5072885;28;20028;-75
2023/10/16 04:13:47;;;;;;;6.97;5.00;;;;;;;8.97;57.28;94926.75;5088800;28;20101;-75
2023/10/16 04:21:47;;;;;;;5.25;3.95;;;;;;;9.07;56.77;94953.63;5080743;28;20088;-75
2023/10/16 04:29:46;;;;;;;9.55;4.50;;;;;;;8.95;56.81;94945.84;5087839;28;20035;-75
2023/10/16 04:32:37;;;;;;;8.10;4.65;;;;;;;9.06;56.61;94962.34;5072380;28;20236;-75
2023/10/16 04:35:28;;;;;;;6.03;4.55;;;;;;;9.10;56.43;94974.13;5087943;28;20085;-75
2023/10/16 04:37:54;;;;;;;5.30;4.40;;;;;;;9.02;56.53;94972.09;5090100;28;20498;-75
2023/10/16 04:43:08;;;;;;;7.53;4.55;;;;;;;9.08;56.53;94979.44;5055681;28;20097;-75
2023/10/16 04:45:40;;;;;;;5.40;4.53;;;;;;;9.13;56.35;94989.44;5085880;28;20054;-75
2023/10/16 04:53:11;;;;;;;4.43;3.97;;;;;;;8.83;56.60;95003.75;5068462;28;20044;-74
2023/10/16 04:58:27;;;;;;;6.43;4.25;;;;;;;8.81;56.58;95021.16;5079696;28;20040;-76
2023/10/16 05:17:06;;;;;;;5.30;4.00;;;;;;;8.90;56.71;95072.28;5075395;28;20032;-76
2023/10/16 06:16:47;;;;;;;8.13;3.88;;;;;;;8.73;55.02;95124.47;5069912;28;20083;-77
2023/10/16 06:19:19;;;;;;;3.97;3.17;;;;;;;9.03;54.90;95175.06;5085025;28;20059;-75
2023/10/16 06:21:52;;;;;;;7.00;3.30;;;;;;;9.09;54.61;95180.63;5076700;28;20486;-76
2023/10/16 06:24:35;;;;;;;3.72;3.22;;;;;;;9.02;54.30;95171.63;5078155;28;20487;-76
2023/10/16 06:27:08;;;;;;;5.35;3.35;;;;;;;9.02;54.01;95163.03;5078994;28;20028;-75
2023/10/16 06:29:53;;;;;;;6.93;3.42;;;;;;;9.07;53.74;95179.09;5050499;28;20138;-74
2023/10/16 06:32:35;;;;;;;3.50;2.88;;;;;;;9.17;53.55;95180.09;5077988;28;20418;-75
2023/10/16 06:35:01;;;;;;;4.75;2.78;;;;;;;8.98;54.02;95161.63;5076031;28;20081;-75
2023/10/16 06:37:31;;;;;;;4.55;3.10;;;;;;;9.00;53.71;95154.53;5075744;28;20028;-75
2023/10/16 06:40:00;;;;;;;4.83;3.17;;;;;;;8.91;53.67;95176.75;5059093;28;20064;-71
2023/10/16 06:42:27;;;;;;;4.70;2.47;;;;;;;9.07;53.64;95181.69;5083212;28;20516;-76
2023/10/16 06:44:56;;;;;;;3.92;2.88;;;;;;;9.15;53.30;95179.38;5083259;28;20047;-75
2023/10/16 06:47:47;;;;;;;4.57;2.60;;;;;;;9.10;53.31;95171.09;5086007;28;20164;-75
2023/10/16 06:52:55;;;;;;;5.72;3.47;;;;;;;9.31;52.66;95174.75;5073692;28;20476;-75
2023/10/16 06:55:23;;;;;;;3.53;2.50;;;;;;;9.70;51.36;95196.13;5060668;28;20028;-75
2023/10/16 06:57:49;;;;;;;5.47;2.72;;;;;;;9.58;51.42;95194.41;5069118;28;20035;-75
2023/10/16 07:00:27;;;;;;;4.57;3.30;;;;;;;9.78;51.08;95188.63;5066335;28;20036;-75
2023/10/16 07:02:56;;;;;;;5.55;2.70;;;;;;;12.07;46.38;95181.19;5073912;28;20039;-76
2023/10/16 07:05:22;;;;;;;4.60;2.58;;;;;;;12.73;44.50;95193.88;5069566;28;20755;-76
2023/10/16 07:07:52;;;;;;;4.78;2.45;;;;;;;12.62;43.90;95205.22;5086266;28;20489;-76
2023/10/16 07:10:17;;;;;;;7.47;3.33;;;;;;;12.27;44.80;95216.00;5068659;28;20036;-77
2023/10/16 07:12:58;;;;;;;3.30;2.20;;;;;;;12.84;43.30;95213.81;5076912;28;20032;-77
2023/10/16 07:15:26;;;;;;;3.50;2.40;;;;;;;13.91;41.59;95208.84;5080243;28;20121;-75
2023/10/16 07:17:51;;;;;;;2.75;1.90;;;;;;;15.10;38.28;95189.16;5063645;28;20039;-75
2023/10/16 07:20:27;;;;;;;3.00;1.90;;;;;;;16.15;36.19;95193.84;5070512;28;20028;-75
2023/10/16 07:22:57;;;;;;;3.55;2.45;;;;;;;17.17;34.42;95180.03;5085425;28;20077;-75
2023/10/16 07:25:25;;;;;;;2.67;2.00;;;;;;;17.64;32.86;95170.81;5080471;28;20028;-74
2023/10/16 07:28:12;;;;;;;7.00;2.15;;;;;;;18.60;31.39;95183.31;5077080;28;20040;-74
2023/10/16 07:30:37;;;;;;;4.68;2.03;;;;;;;18.04;31.95;95187.63;5084731;28;20132;-75
2023/10/16 07:33:03;;;;;;;6.45;2.35;;;;;;;17.65;32.30;95188.19;5089174;28;20036;-74
2023/10/16 07:35:31;;;;;;;2.63;1.98;;;;;;;16.71;34.20;95199.63;5079309;28;20020;-75
2023/10/16 07:37:58;;;;;;;4.43;2.30;;;;;;;16.62;34.58;95190.06;5069564;28;20086;-73
2023/10/16 07:40:25;;;;;;;3.47;1.70;;;;;;;17.82;32.23;95192.53;5060151;28;20075;-75
2023/10/16 07:42:52;;;;;;;5.05;1.88;;;;;;;18.26;31.44;95186.97;5047453;28;20044;-75
2023/10/16 07:45:18;;;;;;;3.83;2.03;;;;;;;18.54;30.65;95195.31;5064105;28;20064;-74
2023/10/16 07:47:48;;;;;;;5.40;1.70;;;;;;;19.34;29.48;95188.38;5072702;28;20031;-74
2023/10/16 07:50:17;;;;;;;3.05;2.05;;;;;;;19.87;28.82;95184.16;5088330;28;20035;-75
2023/10/16 07:52:43;;;;;;;6.10;2.03;;;;;;;19.76;28.82;95150.28;5071150;28;20217;-75
2023/10/16 07:55:18;;;;;;;3.85;2.55;;;;;;;19.63;28.76;95185.91;5090079;28;20024;-75
2023/10/16 07:57:44;;;;;;;3.80;1.92;;;;;;;19.00;29.59;95189.50;5072585;28;20627;-75
2023/10/16 08:00:14;;;;;;;3.63;1.80;;;;;;;18.18;30.40;95158.03;5081041;28;20096;-75
2023/10/16 08:19:24;;;;;;;5.30;2.00;;;;;;;16.28;33.66;95159.38;5102833;27;20402;-72
2023/10/16 08:21:50;;;;;;;4.35;2.00;;;;;;;15.69;34.02;95181.81;5085576;28;20064;-72
2023/10/16 08:24:16;;;;;;;4.03;1.70;;;;;;;15.29;34.99;95186.44;5082980;28;20044;-72
2023/10/16 08:26:44;;;;;;;4.25;1.80;;;;;;;15.05;35.38;95181.78;5084908;28;20421;-73
2023/10/16 08:29:20;;;;;;;4.78;1.65;;;;;;;14.97;34.73;95176.44;5082658;28;20043;-72
2023/10/16 08:34:35;;;;;;;2.75;1.40;;;;;;;14.93;34.21;95201.22;5077345;28;20109;-71
2023/10/16 08:37:00;;;;;;;3.50;1.77;;;;;;;14.66;35.37;95183.72;5077535;28;20402;-71
2023/10/16 08:39:25;;;;;;;3.35;1.40;;;;;;;14.60;35.77;95189.50;5048773;28;20043;-71
2023/10/16 08:42:01;;;;;;;5.85;1.95;;;;;;;14.12;36.60;95172.13;5084961;28;20033;-71
2023/10/16 08:44:28;;;;;;;4.50;1.70;;;;;;;14.26;36.08;95164.69;5084469;28;20523;-71
2023/10/16 08:49:23;;;;;;;3.45;1.80;;;;;;;14.46;36.80;95186.38;5066875;28;20028;-71
2023/10/16 08:52:03;;;;;;;3.25;1.73;;;;;;;14.51;35.42;95191.16;5061672;28;20029;-71
2023/10/16 08:57:16;;;;;;;3.65;1.60;;;;;;;14.34;35.64;95178.81;5083757;28;20047;-71
2023/10/16 08:59:42;;;;;;;4.68;1.65;;;;;;;14.03;35.93;95186.84;5083523;28;20093;-72
2023/10/16 09:02:11;;;;;;;4.22;1.70;;;;;;;13.85;35.80;95184.13;5064294;28;20075;-72
2023/10/16 09:04:37;;;;;;;4.07;1.70;;;;;;;13.90;36.49;95179.31;5084841;28;20020;-72
2023/10/16 09:07:03;;;;;;;2.90;1.75;;;;;;;14.27;34.80;95179.38;5062883;28;20528;-72
2023/10/16 09:09:30;;;;;;;3.72;1.52;;;;;;;14.38;35.22;95198.50;5084932;28;20455;-73
2023/10/16 09:12:10;;;;;;;3.83;1.60;;;;;;;14.33;35.22;95192.88;5085609;28;20034;-72
2023/10/16 09:14:37;;;;;;;4.13;1.50;;;;;;;14.15;36.03;95167.47;5081192;28;20025;-72
2023/10/16 09:17:06;;;;;;;3.85;1.52;;;;;;;14.14;36.08;95191.91;5066657;28;20040;-72
2023/10/16 09:19:35;;;;;;;3.45;1.65;;;;;;;14.21;35.55;95182.56;5074784;28;20426;-72
2023/10/16 09:22:08;;;;;;;3.17;1.50;;;;;;;14.08;35.84;95184.66;5073239;28;20040;-72
2023/10/16 09:24:34;;;;;;;3.13;1.50;;;;;;;13.86;36.07;95150.03;5055903;28;20028;-72
2023/10/16 09:27:00;;;;;;;3.50;1.80;;;;;;;13.88;35.26;95168.19;5070795;28;20436;-72
2023/10/16 09:29:27;;;;;;;4.90;1.63;;;;;;;13.73;35.32;95170.34;5055515;28;20020;-72
2023/10/16 09:31:52;;;;;;;3.58;1.60;;;;;;;13.81;35.61;95180.94;5055406;28;20048;-72
2023/10/16 09:34:25;;;;;;;3.03;1.50;;;;;;;13.68;35.56;95172.59;5055346;28;20116;-71
2023/10/16 09:39:36;;;;;;;3.72;1.40;;;;;;;13.75;35.14;95173.66;5072433;28;20078;-73
2023/10/16 09:42:11;;;;;;;3.63;1.50;;;;;;;14.05;34.75;95170.06;5055199;28;20516;-72
2023/10/16 09:45:09;;;;;;;2.45;1.40;;;;;;;14.12;33.99;95161.66;5073079;28;20021;-73
2023/10/16 09:47:48;;;;;;;2.55;1.50;;;;;;;14.15;34.62;95164.84;5072131;28;20120;-73
2023/10/16 09:50:19;;;;;;;5.43;1.50;;;;;;;14.02;34.53;95127.75;5073017;28;20556;-73
2023/10/16 09:52:48;;;;;;;3.20;1.73;;;;;;;14.02;34.35;95138.19;5073166;28;20042;-72
2023/10/16 09:55:14;;;;;;;4.68;1.70;;;;;;;14.11;34.77;95137.34;5072718;28;20024;-72
2023/10/16 09:57:46;;;;;;;6.97;1.50;;;;;;;14.49;34.54;95151.28;5051838;28;20124;-72
2023/10/16 10:02:54;;;;;;;2.55;1.45;;;;;;;14.63;33.46;95140.38;5070543;28;20180;-72
2023/10/16 10:05:22;;;;;;;2.95;1.60;;;;;;;14.49;34.50;95159.94;5054556;28;20037;-72
2023/10/16 10:07:48;;;;;;;2.80;1.65;;;;;;;14.81;33.47;95150.06;5069843;28;20040;-72
2023/10/16 10:13:16;;;;;;;2.70;1.60;;;;;;;14.65;34.03;95141.03;5067615;28;20046;-71
2023/10/16 10:15:46;;;;;;;2.10;1.50;;;;;;;14.43;34.18;95128.31;5067781;28;20124;-71
2023/10/16 10:18:32;;;;;;;;;;;;;;;14.36;33.83;95140.31;5065712;28;20053;-71
2023/10/16 10:20:58;;;;;;;3.13;1.50;;;;;;;14.41;34.20;95138.09;5071374;28;19920;-71
2023/10/16 10:23:25;;;;;;;3.75;1.90;;;;;;;14.44;33.61;95119.50;5048671;28;20102;-70
2023/10/16 10:25:53;;;;;;;2.70;1.50;;;;;;;14.00;33.91;95124.44;5065194;28;20063;-71
2023/10/16 10:28:28;;;;;;;4.53;1.80;;;;;;;14.01;34.76;95121.72;5046214;28;20115;-71
2023/10/16 10:31:02;;;;;;;3.25;1.52;;;;;;;14.41;34.41;95125.03;5055499;28;20107;-71
2023/10/16 10:33:37;;;;;;;2.85;1.60;;;;;;;14.40;34.85;95120.75;5065445;28;20540;-71
2023/10/16 10:36:30;;;;;;;2.75;1.70;;;;;;;14.62;33.44;95102.13;5067964;28;20055;-72
2023/10/16 10:39:43;;;;;;;2.03;1.33;;;;;;;14.47;33.97;95098.31;5057299;28;20045;-71
2023/10/16 10:42:24;;;;;;;2.40;1.63;;;;;;;14.81;33.29;95098.59;5050808;28;20036;-71
2023/10/16 10:45:17;;;;;;;3.15;1.60;;;;;;;14.49;33.50;95093.78;5049836;28;20111;-71
2023/10/16 10:47:42;;;;;;;4.50;1.55;;;;;;;14.41;33.43;95096.28;5050766;28;20041;-71
2023/10/16 10:50:14;;;;;;;2.70;1.42;;;;;;;14.58;34.14;95092.94;5050734;28;20087;-71
2023/10/16 10:52:40;;;;;;;2.50;1.45;;;;;;;14.66;33.83;95084.38;5050822;28;20332;-71
2023/10/16 10:55:27;;;;;;;3.55;1.70;;;;;;;14.47;33.27;95078.22;5050017;28;20032;-71
2023/10/16 10:57:55;;;;;;;2.25;1.80;;;;;;;14.65;33.27;95091.38;5050580;28;20041;-71
2023/10/16 11:03:05;;;;;;;3.28;1.65;;;;;;;14.55;32.09;95087.19;5064581;28;20048;-71
2023/10/16 11:05:31;;;;;;;3.22;1.50;;;;;;;14.58;32.28;95064.19;5047934;28;20429;-71
2023/10/16 11:10:44;;;;;;;5.13;1.70;;;;;;;14.57;32.57;95059.94;5048477;28;20513;-71
2023/10/16 11:13:10;;;;;;;4.25;1.70;;;;;;;14.76;32.18;95069.44;5049871;28;20431;-72
2023/10/16 11:15:35;;;;;;;4.30;1.50;;;;;;;14.56;32.80;95068.72;5033088;28;20063;-71
2023/10/16 11:18:11;;;;;;;2.58;1.42;;;;;;;14.49;31.91;95075.47;5049879;28;20461;-71
2023/10/16 11:20:37;;;;;;;2.03;1.30;;;;;;;14.45;32.04;95082.78;5050130;28;20028;-71
2023/10/16 11:23:12;;;;;;;5.75;1.65;;;;;;;14.62;32.29;95072.53;5066836;28;20037;-71
2023/10/16 11:25:52;;;;;;;4.10;1.48;;;;;;;14.78;32.82;95062.28;5065626;28;20055;-71
2023/10/16 11:28:28;;;;;;;2.78;1.30;;;;;;;14.74;32.29;95082.69;5033919;28;20406;-71
2023/10/16 11:30:55;;;;;;;2.53;1.30;;;;;;;14.64;31.88;95075.84;5050020;28;20171;-71
2023/10/16 11:33:46;;;;;;;3.78;1.40;;;;;;;14.62;31.93;95057.69;5051502;28;20036;-71
2023/10/16 11:36:14;;;;;;;2.83;1.30;;;;;;;14.78;32.21;95061.47;5051166;28;20040;-71
2023/10/16 11:38:41;;;;;;;2.42;1.50;;;;;;;14.73;32.33;95060.09;5050120;28;20037;-71
2023/10/16 11:41:11;;;;;;;2.50;1.40;;;;;;;14.71;31.85;95056.00;5066416;28;20464;-71
2023/10/16 11:43:40;;;;;;;;;;;;;;;14.90;32.01;95065.50;5050186;28;20090;-71
2023/10/16 11:46:28;;;;;;;2.15;1.40;;;;;;;14.90;31.82;95050.63;5050901;28;19913;-71
2023/10/16 11:48:56;;;;;;;3.65;1.23;;;;;;;15.03;31.78;95065.16;5049501;28;20116;-71
2023/10/16 11:51:23;;;;;;;3.65;1.33;;;;;;;14.75;30.90;95052.13;5065858;28;20031;-71
2023/10/16 11:53:49;;;;;;;2.97;1.50;;;;;;;14.84;30.39;95055.63;5066537;28;20037;-72
2023/10/16 11:56:18;;;;;;;2.38;1.27;;;;;;;14.66;30.93;95056.44;5050831;28;20024;-71
2023/10/16 11:58:44;;;;;;;3.10;1.42;;;;;;;14.77;31.40;95058.03;5033528;28;20047;-71
2023/10/16 12:01:09;;;;;;;2.35;1.30;;;;;;;14.95;30.10;95058.03;5066293;28;20025;-72
2023/10/16 12:03:38;;;;;;;4.75;1.60;;;;;;;15.01;31.09;95046.16;5066383;28;20029;-71
2023/10/16 12:06:08;;;;;;;2.88;1.90;;;;;;;14.93;30.75;95049.50;5050797;28;20505;-71
2023/10/16 12:08:33;;;;;;;2.65;1.63;;;;;;;15.04;31.48;95046.69;5049620;28;20032;-72
2023/10/16 12:11:01;;;;;;;2.08;1.33;;;;;;;14.95;31.82;95048.41;5050651;28;20047;-71
2023/10/16 12:13:27;;;;;;;3.88;1.70;;;;;;;14.96;31.23;95051.84;5049398;28;20064;-71
2023/10/16 12:15:53;;;;;;;2.40;1.40;;;;;;;14.94;30.68;95045.94;5050653;28;20036;-71
2023/10/16 12:18:21;;;;;;;2.65;1.30;;;;;;;15.07;29.84;95046.41;5066053;28;20056;-71
2023/10/16 12:20:46;;;;;;;3.13;1.60;;;;;;;15.01;30.67;95044.38;5065811;28;20045;-71
2023/10/16 12:23:11;;;;;;;3.05;1.38;;;;;;;15.10;31.07;95051.34;5066117;28;20033;-71
2023/10/16 12:25:37;;;;;;;3.67;1.27;;;;;;;15.03;30.07;95050.28;5050611;28;20040;-71
2023/10/16 12:28:07;;;;;;;3.13;1.27;;;;;;;15.17;30.46;95052.38;5065814;28;20037;-71
2023/10/16 12:30:33;;;;;;;2.17;1.30;;;;;;;15.35;29.90;95046.31;5049464;28;20021;-71
2023/10/16 12:32:59;;;;;;;2.60;1.35;;;;;;;15.12;29.91;95046.75;5049349;28;20033;-71
2023/10/16 12:35:26;;;;;;;2.20;1.45;;;;;;;15.12;29.53;95038.09;5050449;28;20487;-71
2023/10/16 12:37:55;;;;;;;2.40;1.30;;;;;;;14.83;30.69;95006.94;5049311;28;20058;-71
2023/10/16 12:40:24;;;;;;;3.00;1.50;;;;;;;15.05;31.37;95042.28;5049273;28;20119;-72
2023/10/16 12:42:53;;;;;;;3.10;1.70;;;;;;;14.82;31.12;95016.56;5049037;28;20044;-71
2023/10/16 12:45:19;;;;;;;3.00;1.77;;;;;;;14.91;31.19;95020.09;5065455;28;20078;-72
2023/10/16 12:47:45;;;;;;;2.45;1.60;;;;;;;15.18;31.24;95025.25;5049083;28;20047;-71
2023/10/16 12:50:11;;;;;;;2.22;1.65;;;;;;;15.32;30.88;95023.06;5050324;28;20025;-71
2023/10/16 12:52:38;;;;;;;4.57;1.55;;;;;;;15.19;31.16;95024.28;5050492;28;20095;-72
2023/10/16 12:55:09;;;;;;;2.90;1.90;;;;;;;15.51;30.45;95030.75;5051516;28;20040;-72
2023/10/16 12:57:34;;;;;;;4.03;1.58;;;;;;;15.32;30.54;95023.06;5054240;28;20044;-72
2023/10/16 12:59:59;;;;;;;4.18;1.70;;;;;;;15.32;30.35;95017.81;5054006;28;20037;-72
2023/10/16 13:02:28;;;;;;;3.78;1.55;;;;;;;15.40;29.66;95017.88;5054162;28;20261;-72
2023/10/16 13:04:55;;;;;;;4.00;1.52;;;;;;;15.50;29.46;95016.00;5068932;28;20037;-72
2023/10/16 13:07:22;;;;;;;2.63;1.30;;;;;;;15.57;28.75;95011.81;5052605;28;20060;-71
2023/10/16 13:09:47;;;;;;;3.63;1.20;;;;;;;15.50;29.07;95021.25;5053836;28;20513;-72
2023/10/16 13:12:13;;;;;;;3.38;1.30;;;;;;;15.43;29.21;95012.34;5052588;28;20033;-71
2023/10/16 13:14:39;;;;;;;3.78;1.10;;;;;;;15.60;28.43;95018.53;5053771;28;20029;-71
2023/10/16 13:17:08;;;;;;;2.55;1.10;;;;;;;15.51;29.15;95022.06;5053431;28;20056;-72
2023/10/16 13:19:34;;;;;;;5.05;1.42;;;;;;;15.62;28.63;95013.97;5068702;28;20033;-71
2023/10/16 13:22:07;;;;;;;2.60;1.30;;;;;;;15.40;28.82;95007.41;5052378;28;20033;-71
2023/10/16 13:24:34;;;;;;;2.22;1.20;;;;;;;15.49;27.75;95014.38;5052509;28;20032;-71
2023/10/16 13:26:59;;;;;;;3.30;1.20;;;;;;;15.44;26.91;95021.88;5052078;28;20419;-71
2023/10/16 13:29:25;;;;;;;3.28;1.05;;;;;;;15.55;25.77;95024.25;5068995;28;20025;-71
2023/10/16 13:31:53;;;;;;;3.05;1.20;;;;;;;15.42;26.45;95021.19;5053390;28;20044;-71
2023/10/16 13:34:19;;;;;;;3.65;1.10;;;;;;;15.33;26.88;95014.25;5052083;28;20096;-72
2023/10/16 13:37:00;;;;;;;3.75;1.40;;;;;;;15.30;27.61;95018.00;5052121;28;20028;-72
2023/10/16 13:39:25;;;;;;;;;;;;;;;15.38;27.76;95022.47;5067748;28;20059;-71
2023/10/16 13:41:51;;;;;;;5.80;3.30;;;;;;;15.19;27.70;95010.38;5051874;28;19924;-71
2023/10/16 13:44:23;;;;;;;7.50;4.30;;;;;;;15.10;26.18;95013.88;5051995;28;20056;-71
2023/10/16 13:46:49;;;;;;;2.50;1.70;;;;;;;15.12;25.85;95011.94;5068388;28;20067;-72
2023/10/16 13:49:15;;;;;;;1.63;1.00;;;;;;;15.09;25.71;95013.06;5051923;28;20525;-71
2023/10/16 13:51:41;;;;;;;3.22;1.80;;;;;;;15.01;26.69;95007.75;5051828;28;20457;-71
2023/10/16 13:54:12;;;;;;;3.88;1.08;;;;;;;15.08;25.92;94985.25;5051941;28;20021;-71
2023/10/16 13:56:41;;;;;;;1.60;0.93;;;;;;;14.93;24.84;94998.06;5051886;28;20033;-72
2023/10/16 13:59:07;;;;;;;3.47;2.00;;;;;;;14.99;24.69;95001.84;5051698;28;20064;-71
2023/10/16 14:01:38;;;;;;;4.85;3.38;;;;;;;15.08;23.57;95000.13;5051774;28;20033;-72
2023/10/16 14:04:11;;;;;;;3.03;1.55;;;;;;;15.02;23.76;95011.19;5052285;28;20032;-71
2023/10/16 14:06:40;;;;;;;3.53;1.13;;;;;;;15.14;23.37;95000.34;5067340;28;20029;-71
2023/10/16 14:09:19;;;;;;;1.92;0.82;;;;;;;15.11;21.43;95013.72;5067631;28;20039;-71
2023/10/16 14:11:50;;;;;;;2.45;0.95;;;;;;;15.20;22.36;95010.19;5052675;28;20025;-71